createdAt,value
2019-04-28T00:02:01.323Z,96277.17
2019-04-28T00:04:48.994Z,96273.27
2019-04-28T00:07:36.142Z,96276.18
2019-04-28T00:10:23.866Z,96277.72
2019-04-28T00:13:11.220Z,96275.12
2019-04-28T00:15:58.706Z,96272.20
2019-04-28T00:18:46.141Z,96270.05
2019-04-28T00:21:45.454Z,96270.61
2019-04-28T00:25:03.989Z,96272.09
2019-04-28T00:27:51.647Z,96278.20
2019-04-28T00:30:39.168Z,96272.52
2019-04-28T00:33:26.873Z,96270.26
2019-04-28T00:36:14.568Z,96265.47
2019-04-28T00:39:01.862Z,96262.80
2019-04-28T00:41:49.492Z,96269.09
2019-04-28T00:44:37.050Z,96272.66
2019-04-28T00:47:24.910Z,96270.18
2019-04-28T00:50:12.305Z,96264.48
2019-04-28T00:53:01.613Z,96272.88
2019-04-28T00:55:48.692Z,96264.90
2019-04-28T00:58:36.404Z,96262.20
2019-04-28T01:01:40.680Z,96264.72
2019-04-28T01:04:29.108Z,96259.56
2019-04-28T01:07:16.591Z,96256.03
2019-04-28T01:10:04.640Z,96256.42
2019-04-28T01:12:52.355Z,96251.13
2019-04-28T01:15:50.069Z,96250.26
2019-04-28T01:18:43.164Z,96242.45
2019-04-28T01:21:50.257Z,96239.93
2019-04-28T01:24:39.756Z,96230.59
2019-04-28T01:27:46.820Z,96232.52
2019-04-28T01:30:53.693Z,96239.02
2019-04-28T01:34:03.131Z,96242.02
2019-04-28T01:36:51.633Z,96238.75
2019-04-28T01:39:41.175Z,96231.50
2019-04-28T01:42:30.230Z,96231.81
2019-04-28T01:45:17.601Z,96223.43
2019-04-28T01:48:05.278Z,96219.39
2019-04-28T01:50:52.903Z,96210.23
2019-04-28T01:53:40.494Z,96208.62
2019-04-28T01:56:27.832Z,96211.23
2019-04-28T01:59:15.154Z,96209.93
2019-04-28T02:02:02.702Z,96212.70
2019-04-28T02:04:50.446Z,96205.73
2019-04-28T02:07:40.582Z,96208.76
2019-04-28T02:10:27.285Z,96203.30
2019-04-28T02:13:15.004Z,96199.99
2019-04-28T02:16:02.263Z,96200.47
2019-04-28T02:18:49.909Z,96198.37
2019-04-28T02:21:53.044Z,96192.09
2019-04-28T02:24:40.758Z,96189.36
2019-04-28T02:27:30.065Z,96190.80
2019-04-28T02:30:17.252Z,96186.02
2019-04-28T02:33:04.685Z,96189.01
2019-04-28T02:35:52.389Z,96187.75
2019-04-28T02:38:41.366Z,96188.61
2019-04-28T02:41:30.654Z,96183.94
2019-04-28T02:44:23.105Z,96184.71
2019-04-28T02:47:07.044Z,96183.11
2019-04-28T02:50:13.704Z,96184.19
2019-04-28T02:53:25.773Z,96180.03
2019-04-28T02:56:13.228Z,96179.42
2019-04-28T02:59:01.027Z,96167.56
2019-04-28T03:01:50.915Z,96167.48
2019-04-28T03:04:40.881Z,96164.97
2019-04-28T03:07:27.840Z,96162.05
2019-04-28T03:10:15.945Z,96170.00
2019-04-28T03:13:03.486Z,96173.09
2019-04-28T03:15:51.635Z,96169.48
2019-04-28T03:18:41.283Z,96167.70
2019-04-28T03:21:31.090Z,96172.95
2019-04-28T03:24:17.350Z,96162.19
2019-04-28T03:27:32.938Z,96153.08
2019-04-28T03:30:38.226Z,96152.90
2019-04-28T03:33:26.852Z,96151.73
2019-04-28T03:36:15.845Z,96144.36
2019-04-28T03:39:04.603Z,96141.88
2019-04-28T03:41:52.592Z,96143.84
2019-04-28T03:44:41.375Z,96139.94
2019-04-28T03:47:31.130Z,96136.98
2019-04-28T03:50:20.275Z,96130.00
2019-04-28T03:53:07.773Z,96135.38
2019-04-28T03:55:55.574Z,96126.60
2019-04-28T03:58:43.271Z,96126.61
2019-04-28T04:01:30.923Z,96118.89
2019-04-28T04:04:17.973Z,96121.67
2019-04-28T04:07:05.400Z,96111.56
2019-04-28T04:10:02.889Z,96106.48
2019-04-28T04:13:01.011Z,96102.62
2019-04-28T04:16:01.627Z,96102.62
2019-04-28T04:18:53.778Z,96110.42
2019-04-28T04:21:40.765Z,96102.62
2019-04-28T04:24:30.611Z,96099.11
2019-04-28T04:27:20.769Z,96100.59
2019-04-28T04:30:07.060Z,96097.98
2019-04-28T04:32:54.348Z,96093.69
2019-04-28T04:35:43.626Z,96091.52
2019-04-28T04:38:31.595Z,96092.82
2019-04-28T04:41:20.241Z,96093.26
2019-04-28T04:44:10.921Z,96094.55
2019-04-28T04:46:57.442Z,96087.92
2019-04-28T04:49:45.180Z,96084.36
2019-04-28T04:52:33.116Z,96086.92
2019-04-28T04:55:21.186Z,96086.75
2019-04-28T04:58:10.757Z,96088.95
2019-04-28T05:01:06.266Z,96091.14
2019-04-28T05:03:55.238Z,96083.72
2019-04-28T05:06:42.782Z,96075.64
2019-04-28T05:09:31.192Z,96080.64
2019-04-28T05:12:19.614Z,96078.27
2019-04-28T05:15:07.469Z,96075.71
2019-04-28T05:17:54.887Z,96083.64
2019-04-28T05:20:42.883Z,96083.37
2019-04-28T05:23:39.925Z,96088.89
2019-04-28T05:26:27.818Z,96088.94
2019-04-28T05:29:15.313Z,96105.86
2019-04-28T05:32:03.488Z,96102.46
2019-04-28T05:34:52.888Z,96110.97
2019-04-28T05:37:40.568Z,96119.97
2019-04-28T05:40:29.581Z,96118.77
2019-04-28T05:43:17.456Z,96126.83
2019-04-28T05:46:04.763Z,96128.86
2019-04-28T05:49:10.252Z,96127.44
2019-04-28T05:52:01.343Z,96129.50
2019-04-28T05:54:55.154Z,96134.62
2019-04-28T05:57:53.048Z,96138.77
2019-04-28T06:00:53.480Z,96148.73
2019-04-28T06:03:41.526Z,96147.13
2019-04-28T06:06:31.903Z,96149.36
2019-04-28T06:09:47.574Z,96149.67
2019-04-28T06:12:35.235Z,96153.11
2019-04-28T06:15:23.375Z,96160.81
2019-04-28T06:18:10.904Z,96156.48
2019-04-28T06:20:58.611Z,96156.67
2019-04-28T06:23:46.320Z,96160.88
2019-04-28T06:26:34.068Z,96165.52
2019-04-28T06:29:21.599Z,96173.34
2019-04-28T06:32:09.202Z,96177.02
2019-04-28T06:34:56.626Z,96176.17
2019-04-28T06:37:44.111Z,96171.00
2019-04-28T06:40:31.724Z,96179.52
2019-04-28T06:43:19.296Z,96172.44
2019-04-28T06:46:07.160Z,96183.67
2019-04-28T06:48:54.728Z,96185.06
2019-04-28T06:51:42.287Z,96185.02
2019-04-28T06:54:30.852Z,96193.42
2019-04-28T06:57:18.538Z,96199.45
2019-04-28T07:00:07.276Z,96201.52
2019-04-28T07:02:54.342Z,96208.16
2019-04-28T07:05:41.872Z,96202.53
2019-04-28T07:08:29.294Z,96209.05
2019-04-28T07:11:16.980Z,96213.34
2019-04-28T07:14:04.159Z,96213.00
2019-04-28T07:16:52.003Z,96213.52
2019-04-28T07:19:39.857Z,96207.27
2019-04-28T07:22:29.140Z,96214.88
2019-04-28T07:25:16.781Z,96212.16
2019-04-28T07:28:04.735Z,96221.27
2019-04-28T07:30:52.298Z,96215.28
2019-04-28T07:33:40.143Z,96213.99
2019-04-28T07:36:28.313Z,96224.62
2019-04-28T07:39:16.005Z,96213.15
2019-04-28T07:42:03.727Z,96219.38
2019-04-28T07:44:51.288Z,96218.94
2019-04-28T07:47:39.203Z,96220.70
2019-04-28T07:50:26.798Z,96211.70
2019-04-28T07:53:19.341Z,96213.80
2019-04-28T07:56:07.085Z,96211.37
2019-04-28T07:58:54.746Z,96207.78
2019-04-28T08:01:42.176Z,96204.78
2019-04-28T08:04:29.659Z,96202.45
2019-04-28T08:07:16.929Z,96205.59
2019-04-28T08:10:04.140Z,96209.52
2019-04-28T08:12:51.740Z,96206.69
2019-04-28T08:15:39.400Z,96214.16
2019-04-28T08:18:26.609Z,96216.09
2019-04-28T08:21:15.573Z,96210.13
2019-04-28T08:24:03.522Z,96218.22
2019-04-28T08:26:51.372Z,96215.77
2019-04-28T08:29:38.793Z,96217.21
2019-04-28T08:32:34.887Z,96212.13
2019-04-28T08:35:23.063Z,96208.94
2019-04-28T08:38:10.583Z,96212.20
2019-04-28T08:40:58.366Z,96207.00
2019-04-28T08:43:45.581Z,96207.70
2019-04-28T08:46:33.014Z,96208.12
2019-04-28T08:49:20.716Z,96206.47
2019-04-28T08:52:08.226Z,96198.10
2019-04-28T08:54:55.477Z,96194.34
2019-04-28T08:57:42.939Z,96187.21
2019-04-28T09:00:30.712Z,96181.06
2019-04-28T09:03:17.965Z,96187.98
2019-04-28T09:06:05.944Z,96193.71
2019-04-28T09:08:53.760Z,96188.45
2019-04-28T09:11:41.750Z,96186.36
2019-04-28T09:14:29.523Z,96173.61
2019-04-28T09:17:17.351Z,96185.80
2019-04-28T09:20:05.487Z,96188.03
2019-04-28T09:22:53.354Z,96190.66
2019-04-28T09:25:41.063Z,96191.40
2019-04-28T09:28:28.557Z,96189.06
2019-04-28T09:31:15.999Z,96189.11
2019-04-28T09:34:03.970Z,96186.25
2019-04-28T09:36:51.930Z,96197.52
2019-04-28T09:39:52.422Z,96198.56
2019-04-28T09:42:58.152Z,96198.94
2019-04-28T09:45:54.247Z,96198.45
2019-04-28T09:48:42.053Z,96196.08
2019-04-28T09:51:29.479Z,96198.22
2019-04-28T09:54:16.950Z,96199.36
2019-04-28T09:57:04.293Z,96204.73
2019-04-28T09:59:52.989Z,96205.02
2019-04-28T10:02:40.558Z,96198.25
2019-04-28T10:05:28.355Z,96189.73
2019-04-28T10:08:16.214Z,96182.19
2019-04-28T10:11:03.901Z,96180.16
2019-04-28T10:13:51.423Z,96172.64
2019-04-28T10:16:38.873Z,96178.63
2019-04-28T10:19:26.185Z,96171.66
2019-04-28T10:22:13.776Z,96166.97
2019-04-28T10:25:00.870Z,96166.63
2019-04-28T10:27:48.127Z,96163.03
2019-04-28T10:30:35.688Z,96164.63
2019-04-28T10:33:23.172Z,96156.72
2019-04-28T10:36:10.625Z,96160.55
2019-04-28T10:39:17.752Z,96160.53
2019-04-28T10:42:05.180Z,96152.30
2019-04-28T10:44:52.894Z,96143.42
2019-04-28T10:47:40.007Z,96146.48
2019-04-28T10:50:27.561Z,96143.69
2019-04-28T10:53:15.294Z,96144.89
2019-04-28T10:56:02.799Z,96141.02
2019-04-28T10:58:51.976Z,96145.47
2019-04-28T11:01:39.361Z,96146.82
2019-04-28T11:04:47.656Z,96141.13
2019-04-28T11:07:35.483Z,96145.30
2019-04-28T11:10:23.309Z,96135.73
2019-04-28T11:13:10.432Z,96138.96
2019-04-28T11:15:58.220Z,96138.21
2019-04-28T11:18:46.224Z,96134.22
2019-04-28T11:21:33.614Z,96130.88
2019-04-28T11:24:21.091Z,96137.84
2019-04-28T11:27:09.289Z,96137.50
2019-04-28T11:29:56.776Z,96136.01
2019-04-28T11:32:52.034Z,96138.11
2019-04-28T11:35:39.823Z,96135.08
2019-04-28T11:38:27.557Z,96132.53
2019-04-28T11:41:15.347Z,96121.59
2019-04-28T11:44:03.096Z,96124.89
2019-04-28T11:46:50.667Z,96127.81
2019-04-28T11:49:38.005Z,96124.30
2019-04-28T11:52:25.497Z,96127.56
2019-04-28T11:55:13.093Z,96119.22
2019-04-28T11:58:00.993Z,96118.94
2019-04-28T12:00:48.652Z,96118.94
2019-04-28T12:03:36.144Z,96108.37
2019-04-28T12:06:23.774Z,96114.34
2019-04-28T12:09:36.855Z,96107.38
2019-04-28T12:12:55.878Z,96118.31
2019-04-28T12:16:08.077Z,96113.13
2019-04-28T12:19:02.646Z,96116.89
2019-04-28T12:21:50.467Z,96115.39
2019-04-28T12:24:38.174Z,96112.30
2019-04-28T12:27:25.815Z,96107.61
2019-04-28T12:30:13.545Z,96104.87
2019-04-28T12:33:01.323Z,96111.45
2019-04-28T12:35:49.070Z,96107.25
2019-04-28T12:38:36.755Z,96110.09
2019-04-28T12:41:24.737Z,96108.12
2019-04-28T12:44:12.527Z,96111.92
2019-04-28T12:47:00.002Z,96113.99
2019-04-28T12:49:55.389Z,96118.03
2019-04-28T12:52:42.907Z,96120.93
2019-04-28T12:55:30.366Z,96137.33
2019-04-28T12:58:18.246Z,96135.52
2019-04-28T13:01:25.161Z,96149.59
2019-04-28T13:04:30.572Z,96142.06
2019-04-28T13:07:18.068Z,96137.25
2019-04-28T13:10:05.767Z,96145.91
2019-04-28T13:12:53.112Z,96145.21
2019-04-28T13:15:41.153Z,96149.00
2019-04-28T13:18:28.828Z,96150.30
2019-04-28T13:21:16.899Z,96148.80
2019-04-28T13:24:04.185Z,96145.05
2019-04-28T13:26:52.399Z,96137.63
2019-04-28T13:29:39.695Z,96137.33
2019-04-28T13:32:27.068Z,96141.08
2019-04-28T13:35:15.219Z,96128.58
2019-04-28T13:38:03.048Z,96133.91
2019-04-28T13:40:51.046Z,96127.68
2019-04-28T13:43:38.480Z,96124.82
2019-04-28T13:46:26.315Z,96125.88
2019-04-28T13:49:15.360Z,96119.78
2019-04-28T13:52:03.013Z,96113.09
2019-04-28T13:54:52.922Z,96109.75
2019-04-28T13:57:42.286Z,96105.86
2019-04-28T14:00:39.229Z,96100.38
2019-04-28T14:03:34.393Z,96102.16
2019-04-28T14:06:28.390Z,96106.06
2019-04-28T14:09:18.417Z,96102.66
2019-04-28T14:12:05.844Z,96101.05
2019-04-28T14:14:53.268Z,96099.38
2019-04-28T14:17:41.264Z,96092.55
2019-04-28T14:20:28.731Z,96096.33
2019-04-28T14:23:16.075Z,96090.84
2019-04-28T14:26:03.489Z,96085.66
2019-04-28T14:28:50.987Z,96085.18
2019-04-28T14:31:38.316Z,96081.08
2019-04-28T14:34:25.579Z,96084.13
2019-04-28T14:37:12.999Z,96080.75
2019-04-28T14:40:00.769Z,96074.88
2019-04-28T14:42:48.146Z,96068.52
2019-04-28T14:45:35.469Z,96070.69
2019-04-28T14:48:23.245Z,96073.45
2019-04-28T14:51:11.068Z,96063.08
2019-04-28T14:53:59.213Z,96067.55
2019-04-28T14:56:46.955Z,96062.23
2019-04-28T14:59:34.563Z,96059.77
2019-04-28T15:02:35.527Z,96051.58
2019-04-28T15:05:39.477Z,96057.69
2019-04-28T15:08:37.612Z,96046.60
2019-04-28T15:11:29.615Z,96053.95
2019-04-28T15:14:16.681Z,96050.91
2019-04-28T15:17:04.387Z,96046.30
2019-04-28T15:19:51.435Z,96042.45
2019-04-28T15:22:38.859Z,96035.70
2019-04-28T15:25:25.937Z,96041.01
2019-04-28T15:28:13.594Z,96031.78
2019-04-28T15:31:01.119Z,96033.86
2019-04-28T15:33:48.911Z,96036.16
2019-04-28T15:36:36.005Z,96027.41
2019-04-28T15:39:23.350Z,96036.30
2019-04-28T15:42:10.992Z,96037.17
2019-04-28T15:44:58.336Z,96035.84
2019-04-28T15:47:46.229Z,96037.02
2019-04-28T15:50:33.953Z,96038.18
2019-04-28T15:53:21.328Z,96039.89
2019-04-28T15:56:17.620Z,96036.23
2019-04-28T15:59:06.665Z,96043.09
2019-04-28T16:01:54.141Z,96039.30
2019-04-28T16:04:43.369Z,96038.18
2019-04-28T16:07:30.957Z,96041.34
2019-04-28T16:10:18.326Z,96046.44
2019-04-28T16:13:05.728Z,96030.39
2019-04-28T16:15:53.575Z,96030.36
2019-04-28T16:18:41.120Z,96029.73
2019-04-28T16:21:28.567Z,96023.88
2019-04-28T16:24:16.481Z,96032.13
2019-04-28T16:27:04.566Z,96033.81
2019-04-28T16:29:52.255Z,96023.70
2019-04-28T16:32:39.646Z,96021.33
2019-04-28T16:35:27.486Z,96029.91
2019-04-28T16:38:15.374Z,96033.30
2019-04-28T16:41:03.176Z,96038.73
2019-04-28T16:43:50.531Z,96034.90
2019-04-28T16:46:38.430Z,96035.07
2019-04-28T16:49:25.513Z,96036.29
2019-04-28T16:52:12.898Z,96038.05
2019-04-28T16:55:19.499Z,96050.00
2019-04-28T16:58:26.331Z,96048.61
2019-04-28T17:01:25.986Z,96052.14
2019-04-28T17:04:13.667Z,96058.05
2019-04-28T17:07:01.015Z,96055.81
2019-04-28T17:09:48.642Z,96051.27
2019-04-28T17:12:36.549Z,96059.36
2019-04-28T17:15:24.181Z,96052.72
2019-04-28T17:18:11.872Z,96056.41
2019-04-28T17:20:59.468Z,96056.59
2019-04-28T17:23:47.174Z,96059.72
2019-04-28T17:26:34.502Z,96060.17
2019-04-28T17:29:22.670Z,96060.77
2019-04-28T17:32:10.601Z,96056.66
2019-04-28T17:34:58.090Z,96059.98
2019-04-28T17:37:45.646Z,96064.41
2019-04-28T17:40:33.785Z,96061.00
2019-04-28T17:43:20.974Z,96066.68
2019-04-28T17:46:08.632Z,96070.32
2019-04-28T17:48:57.686Z,96072.44
2019-04-28T17:51:45.373Z,96077.67
2019-04-28T17:54:32.760Z,96069.75
2019-04-28T17:57:20.550Z,96069.38
2019-04-28T18:00:19.049Z,96067.43
2019-04-28T18:03:19.687Z,96072.52
2019-04-28T18:06:17.923Z,96073.30
2019-04-28T18:09:06.074Z,96083.64
2019-04-28T18:11:53.594Z,96085.35
2019-04-28T18:14:42.912Z,96090.50
2019-04-28T18:17:49.577Z,96094.20
2019-04-28T18:20:37.328Z,96098.00
2019-04-28T18:23:24.784Z,96100.95
2019-04-28T18:26:12.529Z,96113.11
2019-04-28T18:29:00.186Z,96120.58
2019-04-28T18:32:06.693Z,96131.45
2019-04-28T18:35:04.004Z,96130.90
2019-04-28T18:37:59.670Z,96129.66
2019-04-28T18:40:59.904Z,96145.77
2019-04-28T18:44:06.374Z,96163.98
2019-04-28T18:46:53.854Z,96157.58
2019-04-28T18:49:41.348Z,96165.72
2019-04-28T18:52:29.037Z,96173.31
2019-04-28T18:55:16.709Z,96181.63
2019-04-28T18:58:04.163Z,96182.81
2019-04-28T19:01:12.444Z,96187.78
2019-04-28T19:03:59.742Z,96185.78
2019-04-28T19:06:47.652Z,96193.38
2019-04-28T19:09:45.443Z,96194.84
2019-04-28T19:12:43.394Z,96191.64
2019-04-28T19:15:49.045Z,96198.82
2019-04-28T19:18:38.904Z,96207.98
2019-04-28T19:21:25.989Z,96204.38
2019-04-28T19:24:13.310Z,96210.37
2019-04-28T19:27:02.304Z,96216.18
2019-04-28T19:29:49.253Z,96222.34
2019-04-28T19:32:36.988Z,96229.33
2019-04-28T19:35:24.605Z,96224.38
2019-04-28T19:38:12.493Z,96232.28
2019-04-28T19:40:59.953Z,96238.72
2019-04-28T19:43:47.197Z,96232.62
2019-04-28T19:46:34.699Z,96227.11
2019-04-28T19:49:22.407Z,96229.59
2019-04-28T19:52:10.154Z,96231.53
2019-04-28T19:55:18.166Z,96238.78
2019-04-28T19:58:11.481Z,96225.31
2019-04-28T20:01:01.992Z,96229.44
2019-04-28T20:03:49.727Z,96229.35
2019-04-28T20:06:37.559Z,96230.95
2019-04-28T20:09:24.897Z,96242.76
2019-04-28T20:12:12.707Z,96235.62
2019-04-28T20:14:59.826Z,96235.46
2019-04-28T20:17:47.523Z,96238.04
2019-04-28T20:20:35.358Z,96232.07
2019-04-28T20:23:22.514Z,96229.38
2019-04-28T20:26:10.106Z,96223.77
2019-04-28T20:28:57.736Z,96222.60
2019-04-28T20:31:48.649Z,96219.05
2019-04-28T20:34:36.140Z,96215.73
2019-04-28T20:37:32.588Z,96213.53
2019-04-28T20:40:26.494Z,96216.47
2019-04-28T20:43:16.161Z,96222.38
2019-04-28T20:46:03.662Z,96218.04
2019-04-28T20:48:51.277Z,96220.73
2019-04-28T20:51:38.895Z,96219.34
2019-04-28T20:54:26.275Z,96218.57
2019-04-28T20:57:13.921Z,96221.37
2019-04-28T21:00:01.025Z,96216.59
2019-04-28T21:02:48.626Z,96215.88
2019-04-28T21:05:36.708Z,96205.50
2019-04-28T21:08:23.877Z,96210.80
2019-04-28T21:11:11.749Z,96211.70
2019-04-28T21:13:59.069Z,96212.66
2019-04-28T21:16:46.473Z,96222.60
2019-04-28T21:19:34.053Z,96225.59
2019-04-28T21:22:21.897Z,96220.66
2019-04-28T21:25:09.443Z,96222.64
2019-04-28T21:27:57.066Z,96220.25
2019-04-28T21:30:44.226Z,96229.06
2019-04-28T21:33:31.570Z,96232.67
2019-04-28T21:36:19.011Z,96228.60
2019-04-28T21:39:08.279Z,96229.45
2019-04-28T21:41:57.588Z,96231.77
2019-04-28T21:45:00.203Z,96231.38
2019-04-28T21:47:47.902Z,96223.95
2019-04-28T21:50:35.428Z,96219.30
2019-04-28T21:53:22.581Z,96223.04
2019-04-28T21:56:10.055Z,96218.04
2019-04-28T21:58:57.493Z,96210.77
2019-04-28T22:01:45.205Z,96207.92
2019-04-28T22:04:32.998Z,96204.55
2019-04-28T22:07:20.662Z,96206.80
2019-04-28T22:10:09.118Z,96200.47
2019-04-28T22:12:56.547Z,96202.86
2019-04-28T22:15:43.923Z,96204.76
2019-04-28T22:18:32.248Z,96210.80
2019-04-28T22:21:19.940Z,96206.77
2019-04-28T22:24:22.451Z,96207.76
2019-04-28T22:27:12.106Z,96209.02
2019-04-28T22:29:59.589Z,96210.16
2019-04-28T22:32:47.134Z,96213.80
2019-04-28T22:35:34.819Z,96219.13
2019-04-28T22:38:22.206Z,96218.30
2019-04-28T22:41:09.626Z,96209.83
2019-04-28T22:43:57.490Z,96218.38
2019-04-28T22:46:44.979Z,96218.98
2019-04-28T22:49:32.549Z,96214.31
2019-04-28T22:52:20.004Z,96217.00
2019-04-28T22:55:15.518Z,96225.97
2019-04-28T22:58:15.839Z,96230.38
2019-04-28T23:01:14.606Z,96225.97
2019-04-28T23:04:11.285Z,96223.92
2019-04-28T23:06:58.354Z,96225.63
2019-04-28T23:09:45.510Z,96223.98
2019-04-28T23:12:33.195Z,96220.77
2019-04-28T23:15:20.670Z,96219.38
2019-04-28T23:18:08.368Z,96221.30
2019-04-28T23:20:59.016Z,96219.44
2019-04-28T23:23:46.588Z,96227.20
2019-04-28T23:26:34.279Z,96218.70
2019-04-28T23:29:22.145Z,96217.39
2019-04-28T23:32:10.147Z,96214.70
2019-04-28T23:34:57.277Z,96212.80
2019-04-28T23:37:44.358Z,96209.83
2019-04-28T23:40:32.260Z,96210.09
2019-04-28T23:43:20.749Z,96208.88
2019-04-28T23:46:08.139Z,96212.36
2019-04-28T23:48:55.454Z,96218.72
2019-04-28T23:51:49.396Z,96215.02
2019-04-28T23:54:38.971Z,96219.13
2019-04-28T23:57:26.200Z,96225.07
